Main page
METAR-TAF:

METAR-TAF

Airports :

Santander Airport

Santander, Spain

latitude: 43-26N, longitude: 003-49W, elevation: 6 m

Current weather observation

The report was made 32 minutes ago, at 23:00 UTC
Wind 7 kt from the Southwest, varying between South/Southeast and West/Northwest
Temperature 16°C
Humidity 51%
Pressure 1013 hPa
Visibility: 7000 m

METAR: LEXJ 242300Z AUTO 22007KT 160V300 7000 NSC 16/06 Q1013

Time: 00:32 (23:32 UTC)

Forecast

The report was made 3 hours and 32 minutes ago, at 20:00 UTC
Forecast valid from 24 at 21 UTC to 25 at 21 UTC
Wind 9 kt from the Southwest
Visibility 10 km or more
no clouds below 1500 m and no cumulonimbus
Probability 40% :
Temporary
from 24 at 22 UTC to 25 at 09 UTC
Wind 15 kt from the Southwest with gusts up to 27 kt

TAF: LEXJ 242000Z 2421/2521 22009KT CAVOK TX17/2512Z TN08/2521Z PROB40 TEMPO 2422/2509 22015G27KT

Weather observations and forecasts of more than 4000 airports (METAR and TAF reports).

The available stations are represented by yellow and red dots on the map.

Hover mouse over dot to see the name of the station.

Then click to see weather observations and forecasts.

To change the map : click on the green buttons with a black cross to zoom in, on the green button with a dash to zoom out, or on the green arrows for adjacent maps.


METAR-TAF: